createdAt,value
2023-05-20T00:20:01.188Z,10.88
2023-05-20T00:50:06.340Z,10.82
2023-05-20T01:20:17.903Z,10.64
2023-05-20T01:50:21.261Z,10.58
2023-05-20T02:20:26.082Z,10.58
2023-05-20T02:50:29.165Z,10.44
2023-05-20T03:20:32.586Z,10.56
2023-05-20T03:50:36.066Z,10.62
2023-05-20T04:20:40.300Z,10.77
2023-05-20T04:50:45.515Z,10.85
2023-05-20T05:20:49.322Z,10.98
2023-05-20T05:50:52.434Z,11.18
2023-05-20T06:20:57.282Z,11.47
2023-05-20T06:51:01.617Z,11.84
2023-05-20T07:21:05.675Z,12.50
2023-05-20T07:51:09.504Z,13.19
2023-05-20T08:21:14.043Z,13.83
2023-05-20T08:51:20.377Z,14.66
2023-05-20T09:21:24.820Z,15.03
2023-05-20T09:51:28.450Z,15.07
2023-05-20T10:21:31.954Z,15.53
2023-05-20T10:51:34.978Z,16.04
2023-05-20T11:21:39.136Z,17.03
2023-05-20T11:51:42.510Z,18.02
2023-05-20T12:21:45.992Z,19.85
2023-05-20T12:51:52.875Z,20.72
2023-05-20T13:21:56.393Z,21.25
2023-05-20T13:52:00.295Z,21.65
2023-05-20T14:22:05.791Z,21.89
2023-05-20T14:52:09.766Z,21.75
2023-05-20T15:22:12.951Z,21.76
2023-05-20T15:52:16.644Z,21.94
2023-05-20T16:22:19.743Z,21.92
2023-05-20T16:52:23.349Z,21.32
2023-05-20T17:22:36.837Z,20.31
2023-05-20T17:52:42.557Z,19.61
2023-05-20T18:22:45.712Z,18.88
2023-05-20T18:52:48.989Z,18.05
2023-05-20T19:22:52.500Z,17.04
2023-05-20T19:52:55.868Z,16.06
2023-05-20T20:23:00.650Z,15.43
2023-05-20T20:53:04.212Z,14.93
2023-05-20T21:23:07.386Z,14.41
2023-05-20T21:53:10.813Z,14.03
2023-05-20T22:23:14.813Z,13.73
2023-05-20T22:53:18.357Z,13.47
2023-05-20T23:23:30.285Z,13.43
2023-05-20T23:53:34.991Z,13.80
